sensor_id;sensor_type;location;lat;lon;timestamp;temperature;humidity
27759;DHT22;15148;48.972;12.794;2022-10-16T00:02:24;13.80;99.90
27759;DHT22;15148;48.972;12.794;2022-10-16T00:07:27;13.80;99.90
27759;DHT22;15148;48.972;12.794;2022-10-16T00:12:29;13.80;99.90
27759;DHT22;15148;48.972;12.794;2022-10-16T00:17:31;13.80;99.90
27759;DHT22;15148;48.972;12.794;2022-10-16T00:22:33;13.80;99.90
27759;DHT22;15148;48.972;12.794;2022-10-16T00:27:35;13.80;99.90
27759;DHT22;15148;48.972;12.794;2022-10-16T00:32:37;13.80;99.90
27759;DHT22;15148;48.972;12.794;2022-10-16T00:37:38;13.80;99.90
27759;DHT22;15148;48.972;12.794;2022-10-16T00:42:40;13.80;99.90
27759;DHT22;15148;48.972;12.794;2022-10-16T00:47:43;13.80;99.90
27759;DHT22;15148;48.972;12.794;2022-10-16T00:52:50;13.80;99.90
27759;DHT22;15148;48.972;12.794;2022-10-16T00:57:53;13.70;99.90
27759;DHT22;15148;48.972;12.794;2022-10-16T01:02:57;13.70;99.90
27759;DHT22;15148;48.972;12.794;2022-10-16T01:08:12;13.70;99.90
27759;DHT22;15148;48.972;12.794;2022-10-16T01:13:24;13.80;99.90
27759;DHT22;15148;48.972;12.794;2022-10-16T01:18:36;13.80;99.90
27759;DHT22;15148;48.972;12.794;2022-10-16T01:29:16;13.70;99.90
27759;DHT22;15148;48.972;12.794;2022-10-16T01:34:25;13.70;99.90
27759;DHT22;15148;48.972;12.794;2022-10-16T01:39:32;13.70;99.90
27759;DHT22;15148;48.972;12.794;2022-10-16T01:44:36;13.70;99.90
27759;DHT22;15148;48.972;12.794;2022-10-16T01:49:39;13.70;99.90
27759;DHT22;15148;48.972;12.794;2022-10-16T01:54:45;13.70;99.90
27759;DHT22;15148;48.972;12.794;2022-10-16T01:59:50;13.60;99.90
27759;DHT22;15148;48.972;12.794;2022-10-16T02:05:04;13.60;99.90
27759;DHT22;15148;48.972;12.794;2022-10-16T02:10:10;13.60;99.90
27759;DHT22;15148;48.972;12.794;2022-10-16T02:15:12;13.60;99.90
27759;DHT22;15148;48.972;12.794;2022-10-16T02:20:14;13.60;99.90
27759;DHT22;15148;48.972;12.794;2022-10-16T02:25:29;13.50;99.90
27759;DHT22;15148;48.972;12.794;2022-10-16T02:30:42;13.50;99.90
27759;DHT22;15148;48.972;12.794;2022-10-16T02:35:46;13.40;99.90
27759;DHT22;15148;48.972;12.794;2022-10-16T02:40:49;13.40;99.90
27759;DHT22;15148;48.972;12.794;2022-10-16T02:45:51;13.30;99.90
27759;DHT22;15148;48.972;12.794;2022-10-16T02:50:53;13.30;99.90
27759;DHT22;15148;48.972;12.794;2022-10-16T02:55:55;13.20;99.90
27759;DHT22;15148;48.972;12.794;2022-10-16T03:00:57;13.20;99.90
27759;DHT22;15148;48.972;12.794;2022-10-16T03:05:59;13.10;99.90
27759;DHT22;15148;48.972;12.794;2022-10-16T03:11:01;13.10;99.90
27759;DHT22;15148;48.972;12.794;2022-10-16T03:16:03;13.10;99.90
27759;DHT22;15148;48.972;12.794;2022-10-16T03:21:04;13.10;99.90
27759;DHT22;15148;48.972;12.794;2022-10-16T03:26:06;13.00;99.90
27759;DHT22;15148;48.972;12.794;2022-10-16T03:31:08;13.00;99.90
27759;DHT22;15148;48.972;12.794;2022-10-16T03:36:10;13.00;99.90
27759;DHT22;15148;48.972;12.794;2022-10-16T03:41:12;13.00;99.90
27759;DHT22;15148;48.972;12.794;2022-10-16T03:46:13;13.00;99.90
27759;DHT22;15148;48.972;12.794;2022-10-16T03:51:15;13.00;99.90
27759;DHT22;15148;48.972;12.794;2022-10-16T03:56:17;12.90;99.90
27759;DHT22;15148;48.972;12.794;2022-10-16T04:01:19;12.80;99.90
27759;DHT22;15148;48.972;12.794;2022-10-16T04:06:21;12.80;99.90
27759;DHT22;15148;48.972;12.794;2022-10-16T04:11:23;12.70;99.90
27759;DHT22;15148;48.972;12.794;2022-10-16T04:16:25;12.70;99.90
27759;DHT22;15148;48.972;12.794;2022-10-16T04:21:26;12.60;99.90
27759;DHT22;15148;48.972;12.794;2022-10-16T04:26:29;12.50;99.90
27759;DHT22;15148;48.972;12.794;2022-10-16T04:31:30;12.40;99.90
27759;DHT22;15148;48.972;12.794;2022-10-16T04:36:32;12.40;99.90
27759;DHT22;15148;48.972;12.794;2022-10-16T04:41:34;12.30;99.90
27759;DHT22;15148;48.972;12.794;2022-10-16T04:46:36;12.20;99.90
27759;DHT22;15148;48.972;12.794;2022-10-16T04:51:38;12.20;99.90
27759;DHT22;15148;48.972;12.794;2022-10-16T04:56:40;12.10;99.90
27759;DHT22;15148;48.972;12.794;2022-10-16T05:01:48;12.10;99.90
27759;DHT22;15148;48.972;12.794;2022-10-16T05:06:50;12.00;99.90
27759;DHT22;15148;48.972;12.794;2022-10-16T05:11:52;12.00;99.90
27759;DHT22;15148;48.972;12.794;2022-10-16T05:16:54;12.00;99.90
27759;DHT22;15148;48.972;12.794;2022-10-16T05:21:56;12.00;99.90
27759;DHT22;15148;48.972;12.794;2022-10-16T05:26:58;12.00;99.90
27759;DHT22;15148;48.972;12.794;2022-10-16T05:31:59;12.00;99.90
27759;DHT22;15148;48.972;12.794;2022-10-16T05:37:01;12.00;99.90
27759;DHT22;15148;48.972;12.794;2022-10-16T05:42:04;12.00;99.90
27759;DHT22;15148;48.972;12.794;2022-10-16T05:47:06;12.10;99.90
27759;DHT22;15148;48.972;12.794;2022-10-16T05:52:08;12.10;99.90
27759;DHT22;15148;48.972;12.794;2022-10-16T05:57:09;12.10;99.90
27759;DHT22;15148;48.972;12.794;2022-10-16T06:02:12;12.20;99.90
27759;DHT22;15148;48.972;12.794;2022-10-16T06:07:14;12.20;99.90
27759;DHT22;15148;48.972;12.794;2022-10-16T06:12:16;12.10;99.90
27759;DHT22;15148;48.972;12.794;2022-10-16T06:17:18;12.10;99.90
27759;DHT22;15148;48.972;12.794;2022-10-16T06:22:20;12.10;99.90
27759;DHT22;15148;48.972;12.794;2022-10-16T06:27:23;12.10;99.90
27759;DHT22;15148;48.972;12.794;2022-10-16T06:32:25;12.30;99.90
27759;DHT22;15148;48.972;12.794;2022-10-16T06:37:28;12.60;99.90
27759;DHT22;15148;48.972;12.794;2022-10-16T06:42:30;12.90;99.90
27759;DHT22;15148;48.972;12.794;2022-10-16T06:47:32;13.20;99.90
27759;DHT22;15148;48.972;12.794;2022-10-16T06:52:34;13.40;99.90
27759;DHT22;15148;48.972;12.794;2022-10-16T06:57:36;13.60;99.90
27759;DHT22;15148;48.972;12.794;2022-10-16T07:02:37;13.90;99.90
27759;DHT22;15148;48.972;12.794;2022-10-16T07:07:39;14.10;99.90
27759;DHT22;15148;48.972;12.794;2022-10-16T07:12:41;14.20;99.90
27759;DHT22;15148;48.972;12.794;2022-10-16T07:17:43;14.30;99.90
27759;DHT22;15148;48.972;12.794;2022-10-16T07:22:45;14.40;99.90
27759;DHT22;15148;48.972;12.794;2022-10-16T07:27:47;14.50;99.90
27759;DHT22;15148;48.972;12.794;2022-10-16T07:32:49;14.60;99.90
27759;DHT22;15148;48.972;12.794;2022-10-16T07:37:51;14.60;99.90
27759;DHT22;15148;48.972;12.794;2022-10-16T07:42:53;14.60;99.90
27759;DHT22;15148;48.972;12.794;2022-10-16T07:47:55;14.70;99.90
27759;DHT22;15148;48.972;12.794;2022-10-16T07:52:57;14.70;99.90
27759;DHT22;15148;48.972;12.794;2022-10-16T07:57:58;14.80;99.90
27759;DHT22;15148;48.972;12.794;2022-10-16T08:03:00;14.90;99.90
27759;DHT22;15148;48.972;12.794;2022-10-16T08:08:02;15.10;99.90
27759;DHT22;15148;48.972;12.794;2022-10-16T08:13:04;15.30;99.90
27759;DHT22;15148;48.972;12.794;2022-10-16T08:18:10;15.50;99.90
27759;DHT22;15148;48.972;12.794;2022-10-16T08:23:12;15.80;99.90
27759;DHT22;15148;48.972;12.794;2022-10-16T08:28:14;16.10;99.90
27759;DHT22;15148;48.972;12.794;2022-10-16T08:33:18;16.30;99.90
27759;DHT22;15148;48.972;12.794;2022-10-16T08:38:20;16.40;99.90
27759;DHT22;15148;48.972;12.794;2022-10-16T08:48:46;16.50;99.90
27759;DHT22;15148;48.972;12.794;2022-10-16T08:53:50;16.50;99.90
27759;DHT22;15148;48.972;12.794;2022-10-16T08:58:54;16.60;99.90
27759;DHT22;15148;48.972;12.794;2022-10-16T09:14:51;16.90;99.90
27759;DHT22;15148;48.972;12.794;2022-10-16T09:20:13;17.00;99.90
27759;DHT22;15148;48.972;12.794;2022-10-16T09:25:20;17.00;99.90
27759;DHT22;15148;48.972;12.794;2022-10-16T09:30:26;17.20;99.90
27759;DHT22;15148;48.972;12.794;2022-10-16T09:35:43;17.20;99.90
27759;DHT22;15148;48.972;12.794;2022-10-16T09:40:45;17.20;99.90
27759;DHT22;15148;48.972;12.794;2022-10-16T09:46:07;17.50;99.90
27759;DHT22;15148;48.972;12.794;2022-10-16T09:51:25;17.60;99.90
27759;DHT22;15148;48.972;12.794;2022-10-16T09:56:28;17.70;99.90
27759;DHT22;15148;48.972;12.794;2022-10-16T10:01:51;17.80;99.90
27759;DHT22;15148;48.972;12.794;2022-10-16T10:06:58;17.90;99.90
27759;DHT22;15148;48.972;12.794;2022-10-16T10:12:01;18.10;99.90
27759;DHT22;15148;48.972;12.794;2022-10-16T10:17:15;18.40;99.90
27759;DHT22;15148;48.972;12.794;2022-10-16T10:22:41;18.50;99.90
27759;DHT22;15148;48.972;12.794;2022-10-16T10:33:37;18.90;99.90
27759;DHT22;15148;48.972;12.794;2022-10-16T10:49:29;19.30;99.90
27759;DHT22;15148;48.972;12.794;2022-10-16T10:54:46;19.40;99.90
27759;DHT22;15148;48.972;12.794;2022-10-16T11:05:30;19.60;99.90
27759;DHT22;15148;48.972;12.794;2022-10-16T11:10:52;19.60;99.90
27759;DHT22;15148;48.972;12.794;2022-10-16T11:15:59;19.70;99.90
27759;DHT22;15148;48.972;12.794;2022-10-16T11:21:10;19.70;99.90
27759;DHT22;15148;48.972;12.794;2022-10-16T11:26:26;19.70;99.90
27759;DHT22;15148;48.972;12.794;2022-10-16T11:31:30;19.90;99.90
27759;DHT22;15148;48.972;12.794;2022-10-16T11:36:50;20.00;99.90
27759;DHT22;15148;48.972;12.794;2022-10-16T11:42:07;20.00;99.90
27759;DHT22;15148;48.972;12.794;2022-10-16T11:47:36;20.10;99.90
27759;DHT22;15148;48.972;12.794;2022-10-16T11:53:09;20.20;99.90
27759;DHT22;15148;48.972;12.794;2022-10-16T11:58:35;20.20;99.90
27759;DHT22;15148;48.972;12.794;2022-10-16T12:03:45;20.40;99.90
27759;DHT22;15148;48.972;12.794;2022-10-16T12:08:53;20.60;99.90
27759;DHT22;15148;48.972;12.794;2022-10-16T12:19:29;20.90;99.90
27759;DHT22;15148;48.972;12.794;2022-10-16T12:24:41;21.10;99.90
27759;DHT22;15148;48.972;12.794;2022-10-16T12:29:44;21.30;99.90
27759;DHT22;15148;48.972;12.794;2022-10-16T12:34:47;21.30;99.90
27759;DHT22;15148;48.972;12.794;2022-10-16T12:39:51;21.30;99.90
27759;DHT22;15148;48.972;12.794;2022-10-16T12:44:54;21.10;99.90
27759;DHT22;15148;48.972;12.794;2022-10-16T12:49:57;20.90;99.90
27759;DHT22;15148;48.972;12.794;2022-10-16T12:54:59;20.70;99.90
27759;DHT22;15148;48.972;12.794;2022-10-16T13:27:59;20.30;99.90
27759;DHT22;15148;48.972;12.794;2022-10-16T13:33:16;20.10;99.90
27759;DHT22;15148;48.972;12.794;2022-10-16T13:38:21;19.90;99.90
27759;DHT22;15148;48.972;12.794;2022-10-16T13:43:35;19.60;99.90
27759;DHT22;15148;48.972;12.794;2022-10-16T13:48:39;19.50;99.90
27759;DHT22;15148;48.972;12.794;2022-10-16T13:53:42;19.40;99.90
27759;DHT22;15148;48.972;12.794;2022-10-16T13:58:44;19.20;99.90
27759;DHT22;15148;48.972;12.794;2022-10-16T14:03:47;19.20;99.90
27759;DHT22;15148;48.972;12.794;2022-10-16T14:09:01;19.10;99.90
27759;DHT22;15148;48.972;12.794;2022-10-16T14:14:04;19.10;99.90
27759;DHT22;15148;48.972;12.794;2022-10-16T14:19:06;19.10;99.90
27759;DHT22;15148;48.972;12.794;2022-10-16T14:24:12;19.10;99.90
27759;DHT22;15148;48.972;12.794;2022-10-16T14:29:19;19.10;99.90
27759;DHT22;15148;48.972;12.794;2022-10-16T14:34:35;19.10;99.90
27759;DHT22;15148;48.972;12.794;2022-10-16T14:39:39;18.90;99.90
27759;DHT22;15148;48.972;12.794;2022-10-16T14:44:42;18.90;99.90
27759;DHT22;15148;48.972;12.794;2022-10-16T14:49:44;18.70;99.90
27759;DHT22;15148;48.972;12.794;2022-10-16T14:54:48;18.60;99.90
27759;DHT22;15148;48.972;12.794;2022-10-16T14:59:50;18.40;99.90
27759;DHT22;15148;48.972;12.794;2022-10-16T15:04:56;18.30;99.90
27759;DHT22;15148;48.972;12.794;2022-10-16T15:09:57;18.10;99.90
27759;DHT22;15148;48.972;12.794;2022-10-16T15:15:00;18.00;99.90
27759;DHT22;15148;48.972;12.794;2022-10-16T15:20:01;17.80;99.90
27759;DHT22;15148;48.972;12.794;2022-10-16T15:25:56;17.60;99.90
27759;DHT22;15148;48.972;12.794;2022-10-16T15:30:33;17.40;99.90
27759;DHT22;15148;48.972;12.794;2022-10-16T15:35:35;17.30;99.90
27759;DHT22;15148;48.972;12.794;2022-10-16T15:40:36;17.20;99.90
27759;DHT22;15148;48.972;12.794;2022-10-16T15:45:39;17.10;99.90
27759;DHT22;15148;48.972;12.794;2022-10-16T15:50:41;17.00;99.90
27759;DHT22;15148;48.972;12.794;2022-10-16T15:55:44;16.90;99.90
27759;DHT22;15148;48.972;12.794;2022-10-16T16:00:54;16.80;99.90
27759;DHT22;15148;48.972;12.794;2022-10-16T16:05:58;16.60;99.90
27759;DHT22;15148;48.972;12.794;2022-10-16T16:11:07;16.60;99.90
27759;DHT22;15148;48.972;12.794;2022-10-16T16:16:11;16.50;99.90
27759;DHT22;15148;48.972;12.794;2022-10-16T16:21:13;16.40;99.90
27759;DHT22;15148;48.972;12.794;2022-10-16T16:26:23;16.30;99.90
27759;DHT22;15148;48.972;12.794;2022-10-16T16:31:28;16.20;99.90
27759;DHT22;15148;48.972;12.794;2022-10-16T16:36:31;16.10;99.90
27759;DHT22;15148;48.972;12.794;2022-10-16T16:41:33;16.00;99.90
27759;DHT22;15148;48.972;12.794;2022-10-16T16:46:35;16.00;99.90
27759;DHT22;15148;48.972;12.794;2022-10-16T16:51:38;15.80;99.90
27759;DHT22;15148;48.972;12.794;2022-10-16T16:56:41;15.70;99.90
27759;DHT22;15148;48.972;12.794;2022-10-16T17:01:46;15.60;99.90
27759;DHT22;15148;48.972;12.794;2022-10-16T17:06:54;15.50;99.90
27759;DHT22;15148;48.972;12.794;2022-10-16T17:11:56;15.40;99.90
27759;DHT22;15148;48.972;12.794;2022-10-16T17:16:57;15.30;99.90
27759;DHT22;15148;48.972;12.794;2022-10-16T17:22:00;15.20;99.90
27759;DHT22;15148;48.972;12.794;2022-10-16T17:27:06;15.10;99.90
27759;DHT22;15148;48.972;12.794;2022-10-16T17:32:08;15.00;99.90
27759;DHT22;15148;48.972;12.794;2022-10-16T17:37:10;15.00;99.90
27759;DHT22;15148;48.972;12.794;2022-10-16T17:42:18;14.90;99.90
27759;DHT22;15148;48.972;12.794;2022-10-16T17:47:20;14.80;99.90
27759;DHT22;15148;48.972;12.794;2022-10-16T17:52:22;14.70;99.90
27759;DHT22;15148;48.972;12.794;2022-10-16T17:57:24;14.70;99.90
27759;DHT22;15148;48.972;12.794;2022-10-16T18:02:26;14.60;99.90
27759;DHT22;15148;48.972;12.794;2022-10-16T18:07:28;14.50;99.90
27759;DHT22;15148;48.972;12.794;2022-10-16T18:12:30;14.60;99.90
27759;DHT22;15148;48.972;12.794;2022-10-16T18:17:34;14.50;99.90
27759;DHT22;15148;48.972;12.794;2022-10-16T18:22:38;14.40;99.90
27759;DHT22;15148;48.972;12.794;2022-10-16T18:27:40;14.40;99.90
27759;DHT22;15148;48.972;12.794;2022-10-16T18:32:42;14.30;99.90
27759;DHT22;15148;48.972;12.794;2022-10-16T18:37:44;14.30;99.90
27759;DHT22;15148;48.972;12.794;2022-10-16T18:42:46;14.30;99.90
27759;DHT22;15148;48.972;12.794;2022-10-16T18:47:48;14.30;99.90
27759;DHT22;15148;48.972;12.794;2022-10-16T18:52:50;14.30;99.90
27759;DHT22;15148;48.972;12.794;2022-10-16T18:57:52;14.30;99.90
27759;DHT22;15148;48.972;12.794;2022-10-16T19:02:55;14.30;99.90
27759;DHT22;15148;48.972;12.794;2022-10-16T19:07:58;14.30;99.90
27759;DHT22;15148;48.972;12.794;2022-10-16T19:12:59;14.30;99.90
27759;DHT22;15148;48.972;12.794;2022-10-16T19:18:01;14.30;99.90
27759;DHT22;15148;48.972;12.794;2022-10-16T19:23:03;14.30;99.90
27759;DHT22;15148;48.972;12.794;2022-10-16T19:28:05;14.40;99.90
27759;DHT22;15148;48.972;12.794;2022-10-16T19:33:08;14.30;99.90
27759;DHT22;15148;48.972;12.794;2022-10-16T19:38:10;14.30;99.90
27759;DHT22;15148;48.972;12.794;2022-10-16T19:43:12;14.30;99.90
27759;DHT22;15148;48.972;12.794;2022-10-16T19:48:14;14.30;99.90
27759;DHT22;15148;48.972;12.794;2022-10-16T19:53:16;14.40;99.90
27759;DHT22;15148;48.972;12.794;2022-10-16T19:58:17;14.40;99.90
27759;DHT22;15148;48.972;12.794;2022-10-16T20:03:20;14.40;99.90
27759;DHT22;15148;48.972;12.794;2022-10-16T20:08:22;14.40;99.90
27759;DHT22;15148;48.972;12.794;2022-10-16T20:13:25;14.50;99.90
27759;DHT22;15148;48.972;12.794;2022-10-16T20:18:27;14.50;99.90
27759;DHT22;15148;48.972;12.794;2022-10-16T20:23:28;14.50;99.90
27759;DHT22;15148;48.972;12.794;2022-10-16T20:28:31;14.50;99.90
27759;DHT22;15148;48.972;12.794;2022-10-16T20:33:33;14.40;99.90
27759;DHT22;15148;48.972;12.794;2022-10-16T20:38:36;14.40;99.90
27759;DHT22;15148;48.972;12.794;2022-10-16T20:43:43;14.40;99.90
27759;DHT22;15148;48.972;12.794;2022-10-16T20:48:46;14.30;99.90
27759;DHT22;15148;48.972;12.794;2022-10-16T20:53:55;14.40;99.90
27759;DHT22;15148;48.972;12.794;2022-10-16T20:58:57;14.40;99.90
27759;DHT22;15148;48.972;12.794;2022-10-16T21:04:00;14.40;99.90
27759;DHT22;15148;48.972;12.794;2022-10-16T21:09:03;14.40;99.90
27759;DHT22;15148;48.972;12.794;2022-10-16T21:14:08;14.30;99.90
27759;DHT22;15148;48.972;12.794;2022-10-16T21:19:09;14.30;99.90
27759;DHT22;15148;48.972;12.794;2022-10-16T21:24:11;14.30;99.90
27759;DHT22;15148;48.972;12.794;2022-10-16T21:29:17;14.30;99.90
27759;DHT22;15148;48.972;12.794;2022-10-16T21:34:20;14.30;99.90
27759;DHT22;15148;48.972;12.794;2022-10-16T21:39:22;14.30;99.90
27759;DHT22;15148;48.972;12.794;2022-10-16T21:44:24;14.30;99.90
27759;DHT22;15148;48.972;12.794;2022-10-16T21:49:26;14.30;99.90
27759;DHT22;15148;48.972;12.794;2022-10-16T21:54:28;14.20;99.90
27759;DHT22;15148;48.972;12.794;2022-10-16T21:59:29;14.20;99.90
27759;DHT22;15148;48.972;12.794;2022-10-16T22:04:31;14.10;99.90
27759;DHT22;15148;48.972;12.794;2022-10-16T22:09:33;14.00;99.90
27759;DHT22;15148;48.972;12.794;2022-10-16T22:14:35;13.90;99.90
27759;DHT22;15148;48.972;12.794;2022-10-16T22:19:37;13.90;99.90
27759;DHT22;15148;48.972;12.794;2022-10-16T22:24:39;13.80;99.90
27759;DHT22;15148;48.972;12.794;2022-10-16T22:29:40;13.70;99.90
27759;DHT22;15148;48.972;12.794;2022-10-16T22:34:42;13.60;99.90
27759;DHT22;15148;48.972;12.794;2022-10-16T22:39:44;13.50;99.90
27759;DHT22;15148;48.972;12.794;2022-10-16T22:44:46;13.40;99.90
27759;DHT22;15148;48.972;12.794;2022-10-16T22:49:48;13.20;99.90
27759;DHT22;15148;48.972;12.794;2022-10-16T22:54:49;13.10;99.90
27759;DHT22;15148;48.972;12.794;2022-10-16T22:59:51;13.00;99.90
27759;DHT22;15148;48.972;12.794;2022-10-16T23:04:53;12.90;99.90
27759;DHT22;15148;48.972;12.794;2022-10-16T23:09:55;12.80;99.90
27759;DHT22;15148;48.972;12.794;2022-10-16T23:14:57;12.80;99.90
27759;DHT22;15148;48.972;12.794;2022-10-16T23:19:58;12.80;99.90
27759;DHT22;15148;48.972;12.794;2022-10-16T23:25:00;12.80;99.90
27759;DHT22;15148;48.972;12.794;2022-10-16T23:30:03;12.70;99.90
27759;DHT22;15148;48.972;12.794;2022-10-16T23:35:07;12.70;99.90
27759;DHT22;15148;48.972;12.794;2022-10-16T23:40:10;12.60;99.90
27759;DHT22;15148;48.972;12.794;2022-10-16T23:45:12;12.50;99.90
27759;DHT22;15148;48.972;12.794;2022-10-16T23:50:14;12.50;99.90
27759;DHT22;15148;48.972;12.794;2022-10-16T23:55:15;12.40;99.90
